Algoa, Arkansas
Current Conditions -  °F | °C
As of 6:56 PM on Saturday 25 Oct 2014 (Local Time) from KM19 Reporting Station
Clear Clear  
Wind Chill: 23°   Ceiling: Unl
Heat Index: 23°   Visibility: 10mi
Dew Point: 18°   Wind: 8mph
Humidity: 71%   Direction: 200°SSW
Pressure: 30.02"   Gusts: NA
Location:  35.5678°N, 91.2073°W
Report Text: KM19 252356Z AUTO 20007KT 10SM CLR 23/18 A3002 RMK AO2 53002 T02330177 10311 20233 SLP163
Loading
Personal Weather Stations






























Interactive Weather Map
Tropical Storm Tracking
New forecast layout! Learn more

10-Day Weather Forecast

Advertisements
Track Severe Weather on mobile